sensor_id;sensor_type;location;lat;lon;timestamp;P1;durP1;ratioP1;P2;durP2;ratioP2
14078;SDS011;7115;50.150;8.568;2022-12-07T00:01:22;18.03;;;10.43;;
14078;SDS011;7115;50.150;8.568;2022-12-07T00:03:50;15.83;;;10.70;;
14078;SDS011;7115;50.150;8.568;2022-12-07T00:06:19;19.03;;;11.70;;
14078;SDS011;7115;50.150;8.568;2022-12-07T00:08:47;19.73;;;10.40;;
14078;SDS011;7115;50.150;8.568;2022-12-07T00:11:15;18.63;;;11.80;;
14078;SDS011;7115;50.150;8.568;2022-12-07T00:13:44;18.57;;;10.83;;
14078;SDS011;7115;50.150;8.568;2022-12-07T00:16:12;19.80;;;11.50;;
14078;SDS011;7115;50.150;8.568;2022-12-07T00:18:42;17.00;;;11.13;;
14078;SDS011;7115;50.150;8.568;2022-12-07T00:21:10;18.50;;;11.03;;
14078;SDS011;7115;50.150;8.568;2022-12-07T00:23:39;17.63;;;11.10;;
14078;SDS011;7115;50.150;8.568;2022-12-07T00:26:07;16.73;;;11.40;;
14078;SDS011;7115;50.150;8.568;2022-12-07T00:28:36;17.20;;;10.00;;
14078;SDS011;7115;50.150;8.568;2022-12-07T00:31:03;17.80;;;11.23;;
14078;SDS011;7115;50.150;8.568;2022-12-07T00:33:31;17.40;;;11.40;;
14078;SDS011;7115;50.150;8.568;2022-12-07T00:36:00;19.60;;;10.93;;
14078;SDS011;7115;50.150;8.568;2022-12-07T00:38:29;17.87;;;10.43;;
14078;SDS011;7115;50.150;8.568;2022-12-07T00:40:57;18.80;;;11.60;;
14078;SDS011;7115;50.150;8.568;2022-12-07T00:43:26;20.27;;;11.20;;
14078;SDS011;7115;50.150;8.568;2022-12-07T00:45:53;17.60;;;11.47;;
14078;SDS011;7115;50.150;8.568;2022-12-07T00:48:21;17.47;;;9.87;;
14078;SDS011;7115;50.150;8.568;2022-12-07T00:50:48;20.70;;;10.97;;
14078;SDS011;7115;50.150;8.568;2022-12-07T00:53:17;20.13;;;11.97;;
14078;SDS011;7115;50.150;8.568;2022-12-07T00:55:44;18.30;;;10.77;;
14078;SDS011;7115;50.150;8.568;2022-12-07T00:58:11;19.87;;;11.20;;
14078;SDS011;7115;50.150;8.568;2022-12-07T01:00:39;18.77;;;10.40;;
14078;SDS011;7115;50.150;8.568;2022-12-07T01:03:08;18.00;;;10.50;;
14078;SDS011;7115;50.150;8.568;2022-12-07T01:05:37;17.60;;;10.57;;
14078;SDS011;7115;50.150;8.568;2022-12-07T01:08:04;17.67;;;10.47;;
14078;SDS011;7115;50.150;8.568;2022-12-07T01:10:33;19.07;;;11.40;;
14078;SDS011;7115;50.150;8.568;2022-12-07T01:13:00;17.17;;;10.27;;
14078;SDS011;7115;50.150;8.568;2022-12-07T01:15:27;18.03;;;10.93;;
14078;SDS011;7115;50.150;8.568;2022-12-07T01:17:53;15.70;;;10.30;;
14078;SDS011;7115;50.150;8.568;2022-12-07T01:20:20;16.20;;;9.43;;
14078;SDS011;7115;50.150;8.568;2022-12-07T01:22:47;16.57;;;10.40;;
14078;SDS011;7115;50.150;8.568;2022-12-07T01:25:14;18.73;;;10.47;;
14078;SDS011;7115;50.150;8.568;2022-12-07T01:27:43;14.30;;;9.30;;
14078;SDS011;7115;50.150;8.568;2022-12-07T01:30:10;17.13;;;10.57;;
14078;SDS011;7115;50.150;8.568;2022-12-07T01:32:38;16.13;;;9.23;;
14078;SDS011;7115;50.150;8.568;2022-12-07T01:35:05;17.17;;;9.97;;
14078;SDS011;7115;50.150;8.568;2022-12-07T01:37:33;16.03;;;9.27;;
14078;SDS011;7115;50.150;8.568;2022-12-07T01:40:02;18.60;;;10.40;;
14078;SDS011;7115;50.150;8.568;2022-12-07T01:42:30;18.43;;;10.47;;
14078;SDS011;7115;50.150;8.568;2022-12-07T01:48:04;17.23;;;9.70;;
14078;SDS011;7115;50.150;8.568;2022-12-07T01:50:34;16.63;;;9.77;;
14078;SDS011;7115;50.150;8.568;2022-12-07T01:53:02;15.73;;;8.63;;
14078;SDS011;7115;50.150;8.568;2022-12-07T01:55:33;18.03;;;10.40;;
14078;SDS011;7115;50.150;8.568;2022-12-07T01:58:03;20.13;;;9.77;;
14078;SDS011;7115;50.150;8.568;2022-12-07T02:00:30;16.27;;;9.73;;
14078;SDS011;7115;50.150;8.568;2022-12-07T02:02:59;17.33;;;9.60;;
14078;SDS011;7115;50.150;8.568;2022-12-07T02:05:32;13.90;;;9.43;;
14078;SDS011;7115;50.150;8.568;2022-12-07T02:08:01;16.17;;;9.07;;
14078;SDS011;7115;50.150;8.568;2022-12-07T02:10:30;16.07;;;9.73;;
14078;SDS011;7115;50.150;8.568;2022-12-07T02:12:58;17.70;;;9.33;;
14078;SDS011;7115;50.150;8.568;2022-12-07T02:15:29;15.80;;;9.33;;
14078;SDS011;7115;50.150;8.568;2022-12-07T02:18:07;14.73;;;8.97;;
14078;SDS011;7115;50.150;8.568;2022-12-07T02:20:40;17.07;;;8.77;;
14078;SDS011;7115;50.150;8.568;2022-12-07T02:29:17;20.00;;;9.67;;
14078;SDS011;7115;50.150;8.568;2022-12-07T02:31:51;14.60;;;8.83;;
14078;SDS011;7115;50.150;8.568;2022-12-07T02:34:27;17.43;;;9.10;;
14078;SDS011;7115;50.150;8.568;2022-12-07T02:37:00;17.33;;;9.57;;
14078;SDS011;7115;50.150;8.568;2022-12-07T02:39:33;17.50;;;9.30;;
14078;SDS011;7115;50.150;8.568;2022-12-07T02:42:07;16.70;;;9.13;;
14078;SDS011;7115;50.150;8.568;2022-12-07T02:44:41;17.73;;;9.97;;
14078;SDS011;7115;50.150;8.568;2022-12-07T02:47:10;14.77;;;8.93;;
14078;SDS011;7115;50.150;8.568;2022-12-07T02:49:41;14.57;;;8.50;;
14078;SDS011;7115;50.150;8.568;2022-12-07T02:52:08;15.70;;;8.93;;
14078;SDS011;7115;50.150;8.568;2022-12-07T02:54:35;16.93;;;9.23;;
14078;SDS011;7115;50.150;8.568;2022-12-07T02:57:05;14.97;;;8.80;;
14078;SDS011;7115;50.150;8.568;2022-12-07T02:59:45;21.53;;;8.73;;
14078;SDS011;7115;50.150;8.568;2022-12-07T03:02:24;16.93;;;8.97;;
14078;SDS011;7115;50.150;8.568;2022-12-07T03:05:02;18.77;;;9.27;;
14078;SDS011;7115;50.150;8.568;2022-12-07T03:07:39;15.27;;;8.67;;
14078;SDS011;7115;50.150;8.568;2022-12-07T03:10:17;13.43;;;8.13;;
14078;SDS011;7115;50.150;8.568;2022-12-07T03:12:51;15.67;;;8.10;;
14078;SDS011;7115;50.150;8.568;2022-12-07T03:15:29;16.47;;;9.53;;
14078;SDS011;7115;50.150;8.568;2022-12-07T03:18:00;16.10;;;8.60;;
14078;SDS011;7115;50.150;8.568;2022-12-07T03:20:29;20.10;;;9.33;;
14078;SDS011;7115;50.150;8.568;2022-12-07T03:22:58;17.40;;;9.33;;
14078;SDS011;7115;50.150;8.568;2022-12-07T03:25:26;15.50;;;8.40;;
14078;SDS011;7115;50.150;8.568;2022-12-07T03:27:54;14.13;;;9.07;;
14078;SDS011;7115;50.150;8.568;2022-12-07T03:30:27;15.30;;;9.40;;
14078;SDS011;7115;50.150;8.568;2022-12-07T03:32:59;14.77;;;8.43;;
14078;SDS011;7115;50.150;8.568;2022-12-07T03:35:31;15.60;;;8.80;;
14078;SDS011;7115;50.150;8.568;2022-12-07T03:38:02;14.07;;;8.47;;
14078;SDS011;7115;50.150;8.568;2022-12-07T03:40:40;15.73;;;8.33;;
14078;SDS011;7115;50.150;8.568;2022-12-07T03:43:13;13.83;;;8.10;;
14078;SDS011;7115;50.150;8.568;2022-12-07T03:45:41;14.27;;;8.40;;
14078;SDS011;7115;50.150;8.568;2022-12-07T03:48:12;16.87;;;8.60;;
14078;SDS011;7115;50.150;8.568;2022-12-07T03:50:48;14.20;;;7.87;;
14078;SDS011;7115;50.150;8.568;2022-12-07T03:53:20;15.33;;;8.60;;
14078;SDS011;7115;50.150;8.568;2022-12-07T03:55:50;15.73;;;8.30;;
14078;SDS011;7115;50.150;8.568;2022-12-07T03:58:20;15.97;;;7.80;;
14078;SDS011;7115;50.150;8.568;2022-12-07T04:00:50;16.63;;;8.03;;
14078;SDS011;7115;50.150;8.568;2022-12-07T04:03:17;15.37;;;8.00;;
14078;SDS011;7115;50.150;8.568;2022-12-07T04:05:44;11.80;;;6.70;;
14078;SDS011;7115;50.150;8.568;2022-12-07T04:08:12;13.90;;;6.97;;
14078;SDS011;7115;50.150;8.568;2022-12-07T04:10:39;13.80;;;7.90;;
14078;SDS011;7115;50.150;8.568;2022-12-07T04:13:05;13.40;;;7.67;;
14078;SDS011;7115;50.150;8.568;2022-12-07T04:15:32;15.60;;;7.80;;
14078;SDS011;7115;50.150;8.568;2022-12-07T04:18:00;13.17;;;7.40;;
14078;SDS011;7115;50.150;8.568;2022-12-07T04:20:27;14.73;;;8.10;;
14078;SDS011;7115;50.150;8.568;2022-12-07T04:22:54;14.33;;;7.03;;
14078;SDS011;7115;50.150;8.568;2022-12-07T04:25:21;11.87;;;7.73;;
14078;SDS011;7115;50.150;8.568;2022-12-07T04:27:48;13.47;;;7.73;;
14078;SDS011;7115;50.150;8.568;2022-12-07T04:30:15;14.77;;;7.10;;
14078;SDS011;7115;50.150;8.568;2022-12-07T04:32:42;13.87;;;7.87;;
14078;SDS011;7115;50.150;8.568;2022-12-07T04:35:10;16.50;;;7.33;;
14078;SDS011;7115;50.150;8.568;2022-12-07T04:37:37;13.27;;;7.40;;
14078;SDS011;7115;50.150;8.568;2022-12-07T04:40:06;13.80;;;8.10;;
14078;SDS011;7115;50.150;8.568;2022-12-07T04:42:34;13.17;;;8.13;;
14078;SDS011;7115;50.150;8.568;2022-12-07T04:45:01;17.63;;;8.03;;
14078;SDS011;7115;50.150;8.568;2022-12-07T04:47:28;13.47;;;8.13;;
14078;SDS011;7115;50.150;8.568;2022-12-07T04:49:55;14.40;;;7.37;;
14078;SDS011;7115;50.150;8.568;2022-12-07T04:52:23;13.50;;;7.43;;
14078;SDS011;7115;50.150;8.568;2022-12-07T04:54:50;14.47;;;7.73;;
14078;SDS011;7115;50.150;8.568;2022-12-07T04:57:17;17.17;;;8.50;;
14078;SDS011;7115;50.150;8.568;2022-12-07T04:59:43;14.57;;;8.20;;
14078;SDS011;7115;50.150;8.568;2022-12-07T05:02:11;12.40;;;7.70;;
14078;SDS011;7115;50.150;8.568;2022-12-07T05:04:38;14.53;;;8.07;;
14078;SDS011;7115;50.150;8.568;2022-12-07T05:07:05;15.43;;;7.40;;
14078;SDS011;7115;50.150;8.568;2022-12-07T05:09:33;14.63;;;8.00;;
14078;SDS011;7115;50.150;8.568;2022-12-07T05:12:00;13.70;;;7.77;;
14078;SDS011;7115;50.150;8.568;2022-12-07T05:14:27;13.57;;;8.03;;
14078;SDS011;7115;50.150;8.568;2022-12-07T05:16:54;14.63;;;8.30;;
14078;SDS011;7115;50.150;8.568;2022-12-07T05:19:21;13.43;;;7.40;;
14078;SDS011;7115;50.150;8.568;2022-12-07T05:21:48;12.20;;;7.63;;
14078;SDS011;7115;50.150;8.568;2022-12-07T05:24:15;12.30;;;7.33;;
14078;SDS011;7115;50.150;8.568;2022-12-07T05:26:44;15.70;;;8.57;;
14078;SDS011;7115;50.150;8.568;2022-12-07T05:29:12;14.60;;;8.03;;
14078;SDS011;7115;50.150;8.568;2022-12-07T05:31:41;14.67;;;7.90;;
14078;SDS011;7115;50.150;8.568;2022-12-07T05:34:09;12.17;;;6.67;;
14078;SDS011;7115;50.150;8.568;2022-12-07T05:36:36;11.63;;;7.70;;
14078;SDS011;7115;50.150;8.568;2022-12-07T05:39:03;17.23;;;8.70;;
14078;SDS011;7115;50.150;8.568;2022-12-07T05:41:30;14.63;;;8.93;;
14078;SDS011;7115;50.150;8.568;2022-12-07T05:44:21;13.73;;;8.40;;
14078;SDS011;7115;50.150;8.568;2022-12-07T05:46:48;14.93;;;7.97;;
14078;SDS011;7115;50.150;8.568;2022-12-07T05:49:15;15.63;;;8.37;;
14078;SDS011;7115;50.150;8.568;2022-12-07T05:51:42;13.87;;;7.70;;
14078;SDS011;7115;50.150;8.568;2022-12-07T05:54:08;14.83;;;9.80;;
14078;SDS011;7115;50.150;8.568;2022-12-07T05:56:35;12.37;;;7.83;;
14078;SDS011;7115;50.150;8.568;2022-12-07T05:59:02;12.70;;;7.83;;
14078;SDS011;7115;50.150;8.568;2022-12-07T06:01:50;15.97;;;7.70;;
14078;SDS011;7115;50.150;8.568;2022-12-07T06:04:17;12.60;;;8.13;;
14078;SDS011;7115;50.150;8.568;2022-12-07T06:06:45;12.83;;;8.53;;
14078;SDS011;7115;50.150;8.568;2022-12-07T06:09:12;15.33;;;10.23;;
14078;SDS011;7115;50.150;8.568;2022-12-07T06:11:40;13.27;;;7.83;;
14078;SDS011;7115;50.150;8.568;2022-12-07T06:14:25;15.53;;;8.30;;
14078;SDS011;7115;50.150;8.568;2022-12-07T06:16:54;11.97;;;8.13;;
14078;SDS011;7115;50.150;8.568;2022-12-07T06:19:21;12.20;;;7.20;;
14078;SDS011;7115;50.150;8.568;2022-12-07T06:21:48;14.87;;;7.93;;
14078;SDS011;7115;50.150;8.568;2022-12-07T06:24:15;13.03;;;8.27;;
14078;SDS011;7115;50.150;8.568;2022-12-07T06:26:43;15.80;;;8.10;;
14078;SDS011;7115;50.150;8.568;2022-12-07T06:29:10;18.37;;;8.13;;
14078;SDS011;7115;50.150;8.568;2022-12-07T06:31:38;12.53;;;8.13;;
14078;SDS011;7115;50.150;8.568;2022-12-07T06:34:07;14.83;;;8.80;;
14078;SDS011;7115;50.150;8.568;2022-12-07T06:36:36;12.13;;;7.70;;
14078;SDS011;7115;50.150;8.568;2022-12-07T06:39:04;16.77;;;9.00;;
14078;SDS011;7115;50.150;8.568;2022-12-07T06:41:31;19.43;;;8.20;;
14078;SDS011;7115;50.150;8.568;2022-12-07T06:43:58;13.03;;;8.33;;
14078;SDS011;7115;50.150;8.568;2022-12-07T06:46:25;16.40;;;8.80;;
14078;SDS011;7115;50.150;8.568;2022-12-07T06:48:52;13.30;;;8.23;;
14078;SDS011;7115;50.150;8.568;2022-12-07T06:51:20;16.27;;;8.43;;
14078;SDS011;7115;50.150;8.568;2022-12-07T06:53:47;16.43;;;9.30;;
14078;SDS011;7115;50.150;8.568;2022-12-07T06:56:14;11.67;;;7.97;;
14078;SDS011;7115;50.150;8.568;2022-12-07T06:58:41;14.13;;;8.23;;
14078;SDS011;7115;50.150;8.568;2022-12-07T07:01:09;16.23;;;8.33;;
14078;SDS011;7115;50.150;8.568;2022-12-07T07:03:36;12.87;;;8.47;;
14078;SDS011;7115;50.150;8.568;2022-12-07T07:06:03;14.00;;;8.53;;
14078;SDS011;7115;50.150;8.568;2022-12-07T07:08:32;13.30;;;8.17;;
14078;SDS011;7115;50.150;8.568;2022-12-07T07:10:59;12.93;;;9.07;;
14078;SDS011;7115;50.150;8.568;2022-12-07T07:13:26;15.63;;;8.93;;
14078;SDS011;7115;50.150;8.568;2022-12-07T07:15:54;15.47;;;9.03;;
14078;SDS011;7115;50.150;8.568;2022-12-07T07:18:21;14.23;;;8.90;;
14078;SDS011;7115;50.150;8.568;2022-12-07T07:20:48;12.77;;;8.10;;
14078;SDS011;7115;50.150;8.568;2022-12-07T07:23:16;13.93;;;9.20;;
14078;SDS011;7115;50.150;8.568;2022-12-07T07:25:45;12.87;;;8.43;;
14078;SDS011;7115;50.150;8.568;2022-12-07T07:28:12;16.33;;;9.17;;
14078;SDS011;7115;50.150;8.568;2022-12-07T07:30:39;14.93;;;8.83;;
14078;SDS011;7115;50.150;8.568;2022-12-07T07:33:06;14.23;;;8.57;;
14078;SDS011;7115;50.150;8.568;2022-12-07T07:35:34;17.07;;;8.97;;
14078;SDS011;7115;50.150;8.568;2022-12-07T07:38:01;14.93;;;9.40;;
14078;SDS011;7115;50.150;8.568;2022-12-07T07:40:29;15.57;;;9.07;;
14078;SDS011;7115;50.150;8.568;2022-12-07T07:42:57;15.93;;;8.83;;
14078;SDS011;7115;50.150;8.568;2022-12-07T07:45:25;13.57;;;9.20;;
14078;SDS011;7115;50.150;8.568;2022-12-07T07:47:53;14.33;;;8.33;;
14078;SDS011;7115;50.150;8.568;2022-12-07T07:50:20;15.60;;;8.37;;
14078;SDS011;7115;50.150;8.568;2022-12-07T07:52:47;12.93;;;8.00;;
14078;SDS011;7115;50.150;8.568;2022-12-07T07:55:14;14.03;;;7.50;;
14078;SDS011;7115;50.150;8.568;2022-12-07T07:57:42;12.03;;;7.67;;
14078;SDS011;7115;50.150;8.568;2022-12-07T08:00:15;14.33;;;7.27;;
14078;SDS011;7115;50.150;8.568;2022-12-07T08:02:43;12.80;;;8.40;;
14078;SDS011;7115;50.150;8.568;2022-12-07T08:05:11;13.73;;;8.63;;
14078;SDS011;7115;50.150;8.568;2022-12-07T08:07:38;15.27;;;8.87;;
14078;SDS011;7115;50.150;8.568;2022-12-07T08:10:06;13.30;;;8.00;;
14078;SDS011;7115;50.150;8.568;2022-12-07T08:12:35;12.73;;;7.67;;
14078;SDS011;7115;50.150;8.568;2022-12-07T08:15:03;11.40;;;6.80;;
14078;SDS011;7115;50.150;8.568;2022-12-07T08:17:32;9.73;;;6.67;;
14078;SDS011;7115;50.150;8.568;2022-12-07T08:19:59;12.53;;;7.23;;
14078;SDS011;7115;50.150;8.568;2022-12-07T08:22:27;12.00;;;7.57;;
14078;SDS011;7115;50.150;8.568;2022-12-07T08:24:54;14.80;;;7.20;;
14078;SDS011;7115;50.150;8.568;2022-12-07T08:27:21;11.57;;;7.80;;
14078;SDS011;7115;50.150;8.568;2022-12-07T08:29:53;11.47;;;7.57;;
14078;SDS011;7115;50.150;8.568;2022-12-07T08:32:20;12.30;;;7.27;;
14078;SDS011;7115;50.150;8.568;2022-12-07T08:34:48;12.30;;;7.47;;
14078;SDS011;7115;50.150;8.568;2022-12-07T08:37:16;11.33;;;7.43;;
14078;SDS011;7115;50.150;8.568;2022-12-07T08:39:43;10.37;;;6.87;;
14078;SDS011;7115;50.150;8.568;2022-12-07T08:42:10;11.27;;;6.80;;
14078;SDS011;7115;50.150;8.568;2022-12-07T08:44:37;11.93;;;7.67;;
14078;SDS011;7115;50.150;8.568;2022-12-07T08:47:04;11.77;;;7.40;;
14078;SDS011;7115;50.150;8.568;2022-12-07T08:49:34;12.10;;;6.83;;
14078;SDS011;7115;50.150;8.568;2022-12-07T08:52:05;11.30;;;6.67;;
14078;SDS011;7115;50.150;8.568;2022-12-07T08:54:33;9.93;;;6.47;;
14078;SDS011;7115;50.150;8.568;2022-12-07T08:57:02;10.30;;;6.33;;
14078;SDS011;7115;50.150;8.568;2022-12-07T08:59:30;10.13;;;6.70;;
14078;SDS011;7115;50.150;8.568;2022-12-07T09:01:58;10.73;;;6.40;;
14078;SDS011;7115;50.150;8.568;2022-12-07T09:04:25;9.93;;;6.13;;
14078;SDS011;7115;50.150;8.568;2022-12-07T09:06:53;10.03;;;6.67;;
14078;SDS011;7115;50.150;8.568;2022-12-07T09:09:22;10.53;;;5.73;;
14078;SDS011;7115;50.150;8.568;2022-12-07T09:11:49;7.67;;;6.00;;
14078;SDS011;7115;50.150;8.568;2022-12-07T09:14:15;7.60;;;5.13;;
14078;SDS011;7115;50.150;8.568;2022-12-07T09:16:43;9.70;;;5.23;;
14078;SDS011;7115;50.150;8.568;2022-12-07T09:19:10;9.57;;;6.23;;
14078;SDS011;7115;50.150;8.568;2022-12-07T09:21:37;11.00;;;5.57;;
14078;SDS011;7115;50.150;8.568;2022-12-07T09:24:04;8.87;;;5.67;;
14078;SDS011;7115;50.150;8.568;2022-12-07T09:29:02;6.80;;;5.37;;
14078;SDS011;7115;50.150;8.568;2022-12-07T09:31:29;7.50;;;5.20;;
14078;SDS011;7115;50.150;8.568;2022-12-07T09:33:57;9.83;;;6.07;;
14078;SDS011;7115;50.150;8.568;2022-12-07T09:36:25;8.23;;;5.53;;
14078;SDS011;7115;50.150;8.568;2022-12-07T09:38:53;7.43;;;5.60;;
14078;SDS011;7115;50.150;8.568;2022-12-07T09:41:20;8.17;;;5.23;;
14078;SDS011;7115;50.150;8.568;2022-12-07T09:43:49;6.33;;;4.43;;
14078;SDS011;7115;50.150;8.568;2022-12-07T09:46:17;8.20;;;4.23;;
14078;SDS011;7115;50.150;8.568;2022-12-07T09:48:46;4.83;;;3.10;;
14078;SDS011;7115;50.150;8.568;2022-12-07T09:51:17;5.10;;;3.57;;
14078;SDS011;7115;50.150;8.568;2022-12-07T09:53:49;4.43;;;2.30;;
14078;SDS011;7115;50.150;8.568;2022-12-07T09:56:17;4.47;;;2.70;;
14078;SDS011;7115;50.150;8.568;2022-12-07T09:58:45;4.80;;;2.97;;
14078;SDS011;7115;50.150;8.568;2022-12-07T10:01:15;5.13;;;2.33;;
14078;SDS011;7115;50.150;8.568;2022-12-07T10:03:46;6.50;;;2.60;;
14078;SDS011;7115;50.150;8.568;2022-12-07T10:06:17;3.33;;;2.27;;
14078;SDS011;7115;50.150;8.568;2022-12-07T10:08:45;2.20;;;2.00;;
14078;SDS011;7115;50.150;8.568;2022-12-07T10:11:12;3.20;;;2.10;;
14078;SDS011;7115;50.150;8.568;2022-12-07T10:13:41;6.07;;;2.10;;
14078;SDS011;7115;50.150;8.568;2022-12-07T10:16:27;3.80;;;2.10;;
14078;SDS011;7115;50.150;8.568;2022-12-07T10:19:17;3.07;;;2.50;;
14078;SDS011;7115;50.150;8.568;2022-12-07T10:22:09;4.33;;;2.60;;
14078;SDS011;7115;50.150;8.568;2022-12-07T10:24:39;4.37;;;1.90;;
14078;SDS011;7115;50.150;8.568;2022-12-07T10:27:17;3.57;;;1.97;;
14078;SDS011;7115;50.150;8.568;2022-12-07T10:29:47;4.40;;;2.20;;
14078;SDS011;7115;50.150;8.568;2022-12-07T10:32:31;3.57;;;2.07;;
14078;SDS011;7115;50.150;8.568;2022-12-07T10:35:20;3.53;;;2.13;;
14078;SDS011;7115;50.150;8.568;2022-12-07T10:37:50;5.97;;;2.33;;
14078;SDS011;7115;50.150;8.568;2022-12-07T10:40:29;3.77;;;1.90;;
14078;SDS011;7115;50.150;8.568;2022-12-07T10:43:12;4.57;;;1.60;;
14078;SDS011;7115;50.150;8.568;2022-12-07T10:45:56;4.97;;;1.97;;
14078;SDS011;7115;50.150;8.568;2022-12-07T10:48:52;3.00;;;1.90;;
14078;SDS011;7115;50.150;8.568;2022-12-07T10:51:26;4.90;;;1.50;;
14078;SDS011;7115;50.150;8.568;2022-12-07T10:54:09;1.87;;;1.50;;
14078;SDS011;7115;50.150;8.568;2022-12-07T10:56:44;6.60;;;1.97;;
14078;SDS011;7115;50.150;8.568;2022-12-07T10:59:26;6.50;;;1.73;;
14078;SDS011;7115;50.150;8.568;2022-12-07T11:02:11;3.77;;;1.77;;
14078;SDS011;7115;50.150;8.568;2022-12-07T11:04:53;4.63;;;2.10;;
14078;SDS011;7115;50.150;8.568;2022-12-07T11:07:32;3.47;;;1.70;;
14078;SDS011;7115;50.150;8.568;2022-12-07T11:10:08;4.30;;;1.90;;
14078;SDS011;7115;50.150;8.568;2022-12-07T11:12:57;5.23;;;1.70;;
14078;SDS011;7115;50.150;8.568;2022-12-07T11:15:46;3.10;;;1.80;;
14078;SDS011;7115;50.150;8.568;2022-12-07T11:18:24;3.77;;;2.17;;
14078;SDS011;7115;50.150;8.568;2022-12-07T11:20:59;4.37;;;2.47;;
14078;SDS011;7115;50.150;8.568;2022-12-07T11:23:39;2.67;;;1.93;;
14078;SDS011;7115;50.150;8.568;2022-12-07T11:26:13;3.53;;;2.00;;
14078;SDS011;7115;50.150;8.568;2022-12-07T11:28:53;5.93;;;2.10;;
14078;SDS011;7115;50.150;8.568;2022-12-07T11:31:38;4.43;;;1.93;;
14078;SDS011;7115;50.150;8.568;2022-12-07T11:34:21;3.17;;;1.63;;
14078;SDS011;7115;50.150;8.568;2022-12-07T11:36:57;5.57;;;2.20;;
14078;SDS011;7115;50.150;8.568;2022-12-07T11:39:25;5.03;;;1.90;;
14078;SDS011;7115;50.150;8.568;2022-12-07T11:41:55;4.63;;;2.30;;
14078;SDS011;7115;50.150;8.568;2022-12-07T11:44:31;3.43;;;1.47;;
14078;SDS011;7115;50.150;8.568;2022-12-07T11:47:05;5.23;;;1.60;;
14078;SDS011;7115;50.150;8.568;2022-12-07T11:49:39;5.47;;;2.03;;
14078;SDS011;7115;50.150;8.568;2022-12-07T11:52:12;3.50;;;1.57;;
14078;SDS011;7115;50.150;8.568;2022-12-07T11:54:45;4.53;;;1.80;;
14078;SDS011;7115;50.150;8.568;2022-12-07T11:57:16;3.50;;;1.60;;
14078;SDS011;7115;50.150;8.568;2022-12-07T11:59:47;6.57;;;2.10;;
14078;SDS011;7115;50.150;8.568;2022-12-07T12:02:19;8.03;;;2.23;;
14078;SDS011;7115;50.150;8.568;2022-12-07T12:04:51;5.10;;;1.90;;
14078;SDS011;7115;50.150;8.568;2022-12-07T12:07:24;4.20;;;1.60;;
14078;SDS011;7115;50.150;8.568;2022-12-07T12:10:15;4.07;;;1.50;;
14078;SDS011;7115;50.150;8.568;2022-12-07T12:13:01;3.70;;;1.60;;
14078;SDS011;7115;50.150;8.568;2022-12-07T12:16:02;2.37;;;1.47;;
14078;SDS011;7115;50.150;8.568;2022-12-07T12:18:46;3.60;;;1.67;;
14078;SDS011;7115;50.150;8.568;2022-12-07T12:21:25;3.00;;;1.70;;
14078;SDS011;7115;50.150;8.568;2022-12-07T12:23:56;4.03;;;1.53;;
14078;SDS011;7115;50.150;8.568;2022-12-07T12:26:29;5.10;;;2.43;;
14078;SDS011;7115;50.150;8.568;2022-12-07T12:28:58;7.00;;;1.90;;
14078;SDS011;7115;50.150;8.568;2022-12-07T12:31:32;2.80;;;1.20;;
14078;SDS011;7115;50.150;8.568;2022-12-07T12:34:03;2.67;;;1.10;;
14078;SDS011;7115;50.150;8.568;2022-12-07T12:36:52;3.43;;;1.20;;
14078;SDS011;7115;50.150;8.568;2022-12-07T12:39:21;5.27;;;1.17;;
14078;SDS011;7115;50.150;8.568;2022-12-07T12:41:58;1.97;;;1.30;;
14078;SDS011;7115;50.150;8.568;2022-12-07T12:47:42;3.57;;;1.10;;
14078;SDS011;7115;50.150;8.568;2022-12-07T12:50:21;2.87;;;1.27;;
14078;SDS011;7115;50.150;8.568;2022-12-07T12:53:02;5.80;;;1.20;;
14078;SDS011;7115;50.150;8.568;2022-12-07T12:59:15;3.60;;;1.03;;
14078;SDS011;7115;50.150;8.568;2022-12-07T13:01:49;3.07;;;1.50;;
14078;SDS011;7115;50.150;8.568;2022-12-07T13:10:25;2.23;;;1.07;;
14078;SDS011;7115;50.150;8.568;2022-12-07T13:13:03;3.20;;;1.30;;
14078;SDS011;7115;50.150;8.568;2022-12-07T13:15:52;2.80;;;1.00;;
14078;SDS011;7115;50.150;8.568;2022-12-07T13:18:24;2.53;;;1.10;;
14078;SDS011;7115;50.150;8.568;2022-12-07T13:21:02;2.97;;;1.30;;
14078;SDS011;7115;50.150;8.568;2022-12-07T13:23:52;2.17;;;0.97;;
14078;SDS011;7115;50.150;8.568;2022-12-07T13:26:23;1.83;;;0.93;;
14078;SDS011;7115;50.150;8.568;2022-12-07T13:29:05;2.10;;;1.00;;
14078;SDS011;7115;50.150;8.568;2022-12-07T13:31:37;3.57;;;1.03;;
14078;SDS011;7115;50.150;8.568;2022-12-07T13:34:28;1.33;;;0.90;;
14078;SDS011;7115;50.150;8.568;2022-12-07T13:36:57;2.00;;;1.00;;
14078;SDS011;7115;50.150;8.568;2022-12-07T13:39:26;1.20;;;1.00;;
14078;SDS011;7115;50.150;8.568;2022-12-07T13:41:56;1.50;;;1.20;;
14078;SDS011;7115;50.150;8.568;2022-12-07T13:44:24;2.27;;;1.20;;
14078;SDS011;7115;50.150;8.568;2022-12-07T13:46:55;2.63;;;1.00;;
14078;SDS011;7115;50.150;8.568;2022-12-07T13:49:28;2.43;;;1.67;;
14078;SDS011;7115;50.150;8.568;2022-12-07T13:52:06;2.47;;;1.07;;
14078;SDS011;7115;50.150;8.568;2022-12-07T13:54:43;1.67;;;1.10;;
14078;SDS011;7115;50.150;8.568;2022-12-07T13:57:13;3.67;;;1.27;;
14078;SDS011;7115;50.150;8.568;2022-12-07T13:59:39;2.07;;;1.20;;
14078;SDS011;7115;50.150;8.568;2022-12-07T14:02:16;3.53;;;1.10;;
14078;SDS011;7115;50.150;8.568;2022-12-07T14:04:47;3.33;;;1.30;;
14078;SDS011;7115;50.150;8.568;2022-12-07T14:07:21;4.57;;;1.30;;
14078;SDS011;7115;50.150;8.568;2022-12-07T14:09:54;2.10;;;1.30;;
14078;SDS011;7115;50.150;8.568;2022-12-07T14:12:24;2.60;;;1.30;;
14078;SDS011;7115;50.150;8.568;2022-12-07T14:14:53;2.87;;;1.23;;
14078;SDS011;7115;50.150;8.568;2022-12-07T14:17:21;3.33;;;1.73;;
14078;SDS011;7115;50.150;8.568;2022-12-07T14:19:50;2.57;;;1.20;;
14078;SDS011;7115;50.150;8.568;2022-12-07T14:22:20;4.63;;;1.40;;
14078;SDS011;7115;50.150;8.568;2022-12-07T14:27:51;3.37;;;1.13;;
14078;SDS011;7115;50.150;8.568;2022-12-07T14:30:22;1.27;;;0.77;;
14078;SDS011;7115;50.150;8.568;2022-12-07T14:32:51;1.77;;;1.03;;
14078;SDS011;7115;50.150;8.568;2022-12-07T14:35:20;1.30;;;0.73;;
14078;SDS011;7115;50.150;8.568;2022-12-07T14:37:48;3.77;;;1.07;;
14078;SDS011;7115;50.150;8.568;2022-12-07T14:40:16;4.20;;;1.40;;
14078;SDS011;7115;50.150;8.568;2022-12-07T14:42:45;2.80;;;1.63;;
14078;SDS011;7115;50.150;8.568;2022-12-07T14:45:17;1.83;;;1.10;;
14078;SDS011;7115;50.150;8.568;2022-12-07T14:47:46;3.97;;;1.20;;
14078;SDS011;7115;50.150;8.568;2022-12-07T14:50:34;1.87;;;1.30;;
14078;SDS011;7115;50.150;8.568;2022-12-07T14:53:05;5.70;;;1.57;;
14078;SDS011;7115;50.150;8.568;2022-12-07T14:55:52;6.33;;;1.70;;
14078;SDS011;7115;50.150;8.568;2022-12-07T14:58:19;2.47;;;1.33;;
14078;SDS011;7115;50.150;8.568;2022-12-07T15:00:48;3.77;;;1.10;;
14078;SDS011;7115;50.150;8.568;2022-12-07T15:03:14;3.23;;;1.27;;
14078;SDS011;7115;50.150;8.568;2022-12-07T15:05:41;3.43;;;1.20;;
14078;SDS011;7115;50.150;8.568;2022-12-07T15:08:08;5.00;;;1.77;;
14078;SDS011;7115;50.150;8.568;2022-12-07T15:10:38;6.27;;;1.30;;
14078;SDS011;7115;50.150;8.568;2022-12-07T15:13:06;1.93;;;1.03;;
14078;SDS011;7115;50.150;8.568;2022-12-07T15:15:54;3.33;;;1.10;;
14078;SDS011;7115;50.150;8.568;2022-12-07T15:18:21;5.30;;;1.40;;
14078;SDS011;7115;50.150;8.568;2022-12-07T15:20:50;2.53;;;1.30;;
14078;SDS011;7115;50.150;8.568;2022-12-07T15:23:17;2.47;;;1.20;;
14078;SDS011;7115;50.150;8.568;2022-12-07T15:25:45;3.27;;;1.70;;
14078;SDS011;7115;50.150;8.568;2022-12-07T15:28:14;4.57;;;1.87;;
14078;SDS011;7115;50.150;8.568;2022-12-07T15:30:41;5.07;;;1.97;;
14078;SDS011;7115;50.150;8.568;2022-12-07T15:33:11;3.20;;;1.57;;
14078;SDS011;7115;50.150;8.568;2022-12-07T15:35:39;4.13;;;1.70;;
14078;SDS011;7115;50.150;8.568;2022-12-07T15:38:06;5.30;;;2.20;;
14078;SDS011;7115;50.150;8.568;2022-12-07T15:40:33;3.80;;;1.70;;
14078;SDS011;7115;50.150;8.568;2022-12-07T15:43:00;3.20;;;1.63;;